sensor_id;sensor_type;location;lat;lon;timestamp;P1;durP1;ratioP1;P2;durP2;ratioP2
64885;SDS011;51514;52.206;5.114;2023-12-29T00:01:06;14.32;;;3.85;;
64885;SDS011;51514;52.206;5.114;2023-12-29T00:03:31;12.73;;;3.72;;
64885;SDS011;51514;52.206;5.114;2023-12-29T00:05:56;21.40;;;4.43;;
64885;SDS011;51514;52.206;5.114;2023-12-29T00:08:22;11.30;;;3.80;;
64885;SDS011;51514;52.206;5.114;2023-12-29T00:10:47;16.05;;;4.53;;
64885;SDS011;51514;52.206;5.114;2023-12-29T00:13:12;10.75;;;3.13;;
64885;SDS011;51514;52.206;5.114;2023-12-29T00:15:37;12.35;;;3.80;;
64885;SDS011;51514;52.206;5.114;2023-12-29T00:18:03;14.00;;;3.90;;
64885;SDS011;51514;52.206;5.114;2023-12-29T00:20:28;11.55;;;2.90;;
64885;SDS011;51514;52.206;5.114;2023-12-29T00:22:54;15.13;;;3.67;;
64885;SDS011;51514;52.206;5.114;2023-12-29T00:25:23;18.07;;;4.30;;
64885;SDS011;51514;52.206;5.114;2023-12-29T00:27:48;11.60;;;3.42;;
64885;SDS011;51514;52.206;5.114;2023-12-29T00:30:14;11.30;;;3.40;;
64885;SDS011;51514;52.206;5.114;2023-12-29T00:32:40;12.90;;;3.67;;
64885;SDS011;51514;52.206;5.114;2023-12-29T00:35:05;10.48;;;3.55;;
64885;SDS011;51514;52.206;5.114;2023-12-29T00:37:31;14.43;;;3.67;;
64885;SDS011;51514;52.206;5.114;2023-12-29T00:39:56;18.88;;;4.22;;
64885;SDS011;51514;52.206;5.114;2023-12-29T00:42:21;17.98;;;3.47;;
64885;SDS011;51514;52.206;5.114;2023-12-29T00:44:47;15.55;;;3.95;;
64885;SDS011;51514;52.206;5.114;2023-12-29T00:47:12;14.63;;;3.72;;
64885;SDS011;51514;52.206;5.114;2023-12-29T00:49:40;20.25;;;4.30;;
64885;SDS011;51514;52.206;5.114;2023-12-29T00:52:06;12.07;;;3.42;;
64885;SDS011;51514;52.206;5.114;2023-12-29T00:54:31;14.20;;;4.10;;
64885;SDS011;51514;52.206;5.114;2023-12-29T00:56:56;13.57;;;3.85;;
64885;SDS011;51514;52.206;5.114;2023-12-29T00:59:22;13.77;;;3.30;;
64885;SDS011;51514;52.206;5.114;2023-12-29T01:01:47;14.65;;;3.80;;
64885;SDS011;51514;52.206;5.114;2023-12-29T01:04:12;17.08;;;3.38;;
64885;SDS011;51514;52.206;5.114;2023-12-29T01:06:38;13.23;;;3.95;;
64885;SDS011;51514;52.206;5.114;2023-12-29T01:09:03;12.85;;;3.65;;
64885;SDS011;51514;52.206;5.114;2023-12-29T01:11:28;11.23;;;3.75;;
64885;SDS011;51514;52.206;5.114;2023-12-29T01:13:54;15.07;;;3.65;;
64885;SDS011;51514;52.206;5.114;2023-12-29T01:16:19;17.80;;;3.58;;
64885;SDS011;51514;52.206;5.114;2023-12-29T01:18:44;13.40;;;3.30;;
64885;SDS011;51514;52.206;5.114;2023-12-29T01:21:10;9.65;;;3.33;;
64885;SDS011;51514;52.206;5.114;2023-12-29T01:23:35;12.18;;;3.28;;
64885;SDS011;51514;52.206;5.114;2023-12-29T01:26:00;19.42;;;3.58;;
64885;SDS011;51514;52.206;5.114;2023-12-29T01:28:26;17.17;;;4.63;;
64885;SDS011;51514;52.206;5.114;2023-12-29T01:30:51;16.48;;;4.07;;
64885;SDS011;51514;52.206;5.114;2023-12-29T01:33:16;16.35;;;3.70;;
64885;SDS011;51514;52.206;5.114;2023-12-29T01:35:42;18.10;;;4.13;;
64885;SDS011;51514;52.206;5.114;2023-12-29T01:38:07;19.63;;;4.93;;
64885;SDS011;51514;52.206;5.114;2023-12-29T01:40:32;15.75;;;4.63;;
64885;SDS011;51514;52.206;5.114;2023-12-29T01:42:57;14.95;;;4.32;;
64885;SDS011;51514;52.206;5.114;2023-12-29T01:45:23;16.30;;;4.38;;
64885;SDS011;51514;52.206;5.114;2023-12-29T01:47:51;13.23;;;3.25;;
64885;SDS011;51514;52.206;5.114;2023-12-29T01:50:17;12.15;;;4.32;;
64885;SDS011;51514;52.206;5.114;2023-12-29T01:52:44;12.68;;;3.83;;
64885;SDS011;51514;52.206;5.114;2023-12-29T01:55:12;13.25;;;4.03;;
64885;SDS011;51514;52.206;5.114;2023-12-29T01:57:42;13.07;;;3.60;;
64885;SDS011;51514;52.206;5.114;2023-12-29T02:00:08;14.70;;;5.35;;
64885;SDS011;51514;52.206;5.114;2023-12-29T02:02:34;12.15;;;4.53;;
64885;SDS011;51514;52.206;5.114;2023-12-29T02:05:00;14.20;;;4.00;;
64885;SDS011;51514;52.206;5.114;2023-12-29T02:07:26;9.68;;;4.18;;
64885;SDS011;51514;52.206;5.114;2023-12-29T02:12:21;14.85;;;4.35;;
64885;SDS011;51514;52.206;5.114;2023-12-29T02:14:47;9.00;;;3.40;;
64885;SDS011;51514;52.206;5.114;2023-12-29T02:17:16;10.23;;;3.38;;
64885;SDS011;51514;52.206;5.114;2023-12-29T02:19:47;17.58;;;4.28;;
64885;SDS011;51514;52.206;5.114;2023-12-29T02:22:15;11.55;;;3.38;;
64885;SDS011;51514;52.206;5.114;2023-12-29T02:24:47;18.48;;;4.53;;
64885;SDS011;51514;52.206;5.114;2023-12-29T02:30:28;14.02;;;3.65;;
64885;SDS011;51514;52.206;5.114;2023-12-29T02:33:05;11.90;;;3.45;;
64885;SDS011;51514;52.206;5.114;2023-12-29T02:35:35;13.25;;;4.15;;
64885;SDS011;51514;52.206;5.114;2023-12-29T02:38:04;15.73;;;3.67;;
64885;SDS011;51514;52.206;5.114;2023-12-29T02:40:29;12.70;;;3.60;;
64885;SDS011;51514;52.206;5.114;2023-12-29T02:42:55;17.80;;;4.00;;
64885;SDS011;51514;52.206;5.114;2023-12-29T02:45:21;15.15;;;4.00;;
64885;SDS011;51514;52.206;5.114;2023-12-29T02:47:46;16.23;;;4.97;;
64885;SDS011;51514;52.206;5.114;2023-12-29T02:50:12;12.43;;;3.25;;
64885;SDS011;51514;52.206;5.114;2023-12-29T02:52:38;11.23;;;3.10;;
64885;SDS011;51514;52.206;5.114;2023-12-29T02:55:03;13.38;;;3.17;;
64885;SDS011;51514;52.206;5.114;2023-12-29T02:57:29;14.48;;;4.28;;
64885;SDS011;51514;52.206;5.114;2023-12-29T02:59:55;14.15;;;3.78;;
64885;SDS011;51514;52.206;5.114;2023-12-29T03:02:20;13.55;;;3.80;;
64885;SDS011;51514;52.206;5.114;2023-12-29T03:04:46;14.60;;;3.78;;
64885;SDS011;51514;52.206;5.114;2023-12-29T03:07:11;13.30;;;4.18;;
64885;SDS011;51514;52.206;5.114;2023-12-29T03:09:37;13.55;;;4.22;;
64885;SDS011;51514;52.206;5.114;2023-12-29T03:12:02;12.50;;;4.45;;
64885;SDS011;51514;52.206;5.114;2023-12-29T03:14:28;19.70;;;5.10;;
64885;SDS011;51514;52.206;5.114;2023-12-29T03:16:53;20.10;;;5.28;;
64885;SDS011;51514;52.206;5.114;2023-12-29T03:19:18;16.85;;;4.70;;
64885;SDS011;51514;52.206;5.114;2023-12-29T03:21:44;17.60;;;4.72;;
64885;SDS011;51514;52.206;5.114;2023-12-29T03:24:09;15.52;;;4.63;;
64885;SDS011;51514;52.206;5.114;2023-12-29T03:26:34;17.55;;;5.30;;
64885;SDS011;51514;52.206;5.114;2023-12-29T03:29:00;26.42;;;5.47;;
64885;SDS011;51514;52.206;5.114;2023-12-29T03:31:25;19.25;;;5.30;;
64885;SDS011;51514;52.206;5.114;2023-12-29T03:33:51;26.27;;;5.18;;
64885;SDS011;51514;52.206;5.114;2023-12-29T03:36:16;22.20;;;5.90;;
64885;SDS011;51514;52.206;5.114;2023-12-29T03:38:41;20.50;;;5.30;;
64885;SDS011;51514;52.206;5.114;2023-12-29T03:41:07;21.45;;;6.32;;
64885;SDS011;51514;52.206;5.114;2023-12-29T03:43:32;25.60;;;6.03;;
64885;SDS011;51514;52.206;5.114;2023-12-29T03:45:57;19.58;;;4.55;;
64885;SDS011;51514;52.206;5.114;2023-12-29T03:48:23;29.90;;;5.95;;
64885;SDS011;51514;52.206;5.114;2023-12-29T03:50:48;28.75;;;6.55;;
64885;SDS011;51514;52.206;5.114;2023-12-29T03:53:14;27.02;;;5.60;;
64885;SDS011;51514;52.206;5.114;2023-12-29T03:55:40;25.15;;;5.70;;
64885;SDS011;51514;52.206;5.114;2023-12-29T03:58:06;25.17;;;6.03;;
64885;SDS011;51514;52.206;5.114;2023-12-29T04:00:31;20.75;;;4.90;;
64885;SDS011;51514;52.206;5.114;2023-12-29T04:02:57;28.23;;;5.63;;
64885;SDS011;51514;52.206;5.114;2023-12-29T04:05:22;23.88;;;5.32;;
64885;SDS011;51514;52.206;5.114;2023-12-29T04:07:47;26.58;;;5.82;;
64885;SDS011;51514;52.206;5.114;2023-12-29T04:10:13;21.20;;;5.47;;
64885;SDS011;51514;52.206;5.114;2023-12-29T04:12:38;28.65;;;6.50;;
64885;SDS011;51514;52.206;5.114;2023-12-29T04:15:04;24.48;;;5.40;;
64885;SDS011;51514;52.206;5.114;2023-12-29T04:17:29;20.42;;;4.93;;
64885;SDS011;51514;52.206;5.114;2023-12-29T04:19:55;24.17;;;5.30;;
64885;SDS011;51514;52.206;5.114;2023-12-29T04:22:21;22.75;;;5.20;;
64885;SDS011;51514;52.206;5.114;2023-12-29T04:24:46;28.90;;;6.03;;
64885;SDS011;51514;52.206;5.114;2023-12-29T04:27:13;22.45;;;6.03;;
64885;SDS011;51514;52.206;5.114;2023-12-29T04:29:39;39.33;;;7.40;;
64885;SDS011;51514;52.206;5.114;2023-12-29T04:32:04;25.30;;;6.10;;
64885;SDS011;51514;52.206;5.114;2023-12-29T04:34:30;30.10;;;7.40;;
64885;SDS011;51514;52.206;5.114;2023-12-29T04:36:55;32.50;;;6.40;;
64885;SDS011;51514;52.206;5.114;2023-12-29T04:39:20;35.30;;;6.40;;
64885;SDS011;51514;52.206;5.114;2023-12-29T04:41:46;28.13;;;6.85;;
64885;SDS011;51514;52.206;5.114;2023-12-29T04:44:11;30.02;;;6.55;;
64885;SDS011;51514;52.206;5.114;2023-12-29T04:46:36;30.83;;;7.03;;
64885;SDS011;51514;52.206;5.114;2023-12-29T04:49:02;30.65;;;7.30;;
64885;SDS011;51514;52.206;5.114;2023-12-29T04:51:27;32.78;;;7.10;;
64885;SDS011;51514;52.206;5.114;2023-12-29T04:53:52;25.00;;;5.93;;
64885;SDS011;51514;52.206;5.114;2023-12-29T04:56:18;32.88;;;6.03;;
64885;SDS011;51514;52.206;5.114;2023-12-29T04:58:43;29.08;;;6.45;;
64885;SDS011;51514;52.206;5.114;2023-12-29T05:01:08;31.92;;;6.97;;
64885;SDS011;51514;52.206;5.114;2023-12-29T05:03:34;32.55;;;6.65;;
64885;SDS011;51514;52.206;5.114;2023-12-29T05:05:59;26.30;;;7.07;;
64885;SDS011;51514;52.206;5.114;2023-12-29T05:08:24;30.13;;;6.60;;
64885;SDS011;51514;52.206;5.114;2023-12-29T05:10:50;31.38;;;6.75;;
64885;SDS011;51514;52.206;5.114;2023-12-29T05:13:15;37.50;;;8.18;;
64885;SDS011;51514;52.206;5.114;2023-12-29T05:15:40;31.80;;;7.35;;
64885;SDS011;51514;52.206;5.114;2023-12-29T05:18:06;33.38;;;6.50;;
64885;SDS011;51514;52.206;5.114;2023-12-29T05:20:31;39.42;;;7.75;;
64885;SDS011;51514;52.206;5.114;2023-12-29T05:22:57;33.33;;;8.02;;
64885;SDS011;51514;52.206;5.114;2023-12-29T05:25:22;28.52;;;7.65;;
64885;SDS011;51514;52.206;5.114;2023-12-29T05:27:49;32.92;;;6.53;;
64885;SDS011;51514;52.206;5.114;2023-12-29T05:30:14;34.25;;;6.93;;
64885;SDS011;51514;52.206;5.114;2023-12-29T05:32:40;39.55;;;6.75;;
64885;SDS011;51514;52.206;5.114;2023-12-29T05:35:05;29.83;;;7.38;;
64885;SDS011;51514;52.206;5.114;2023-12-29T05:37:30;37.58;;;7.22;;
64885;SDS011;51514;52.206;5.114;2023-12-29T05:39:56;29.13;;;7.43;;
64885;SDS011;51514;52.206;5.114;2023-12-29T05:42:21;20.10;;;5.38;;
64885;SDS011;51514;52.206;5.114;2023-12-29T05:44:47;31.75;;;6.72;;
64885;SDS011;51514;52.206;5.114;2023-12-29T05:47:12;32.70;;;7.00;;
64885;SDS011;51514;52.206;5.114;2023-12-29T05:49:37;27.98;;;6.47;;
64885;SDS011;51514;52.206;5.114;2023-12-29T05:52:07;31.45;;;5.75;;
64885;SDS011;51514;52.206;5.114;2023-12-29T05:54:32;40.10;;;7.80;;
64885;SDS011;51514;52.206;5.114;2023-12-29T05:56:58;28.85;;;5.90;;
64885;SDS011;51514;52.206;5.114;2023-12-29T05:59:24;26.38;;;6.93;;
64885;SDS011;51514;52.206;5.114;2023-12-29T06:01:49;20.23;;;4.90;;
64885;SDS011;51514;52.206;5.114;2023-12-29T06:04:14;24.17;;;5.43;;
64885;SDS011;51514;52.206;5.114;2023-12-29T06:06:41;25.38;;;6.03;;
64885;SDS011;51514;52.206;5.114;2023-12-29T06:09:08;20.70;;;5.75;;
64885;SDS011;51514;52.206;5.114;2023-12-29T06:11:34;27.60;;;7.22;;
64885;SDS011;51514;52.206;5.114;2023-12-29T06:14:00;21.48;;;4.80;;
64885;SDS011;51514;52.206;5.114;2023-12-29T06:16:25;26.08;;;4.75;;
64885;SDS011;51514;52.206;5.114;2023-12-29T06:18:52;24.63;;;4.63;;
64885;SDS011;51514;52.206;5.114;2023-12-29T06:21:17;16.38;;;4.82;;
64885;SDS011;51514;52.206;5.114;2023-12-29T06:23:43;26.75;;;6.13;;
64885;SDS011;51514;52.206;5.114;2023-12-29T06:28:45;16.35;;;4.63;;
64885;SDS011;51514;52.206;5.114;2023-12-29T06:31:11;21.42;;;4.50;;
64885;SDS011;51514;52.206;5.114;2023-12-29T06:33:43;25.38;;;5.57;;
64885;SDS011;51514;52.206;5.114;2023-12-29T06:36:09;22.15;;;4.63;;
64885;SDS011;51514;52.206;5.114;2023-12-29T06:38:35;26.15;;;5.68;;
64885;SDS011;51514;52.206;5.114;2023-12-29T06:41:04;20.92;;;3.97;;
64885;SDS011;51514;52.206;5.114;2023-12-29T06:43:29;18.48;;;4.70;;
64885;SDS011;51514;52.206;5.114;2023-12-29T06:45:55;22.88;;;4.35;;
64885;SDS011;51514;52.206;5.114;2023-12-29T06:48:21;19.42;;;4.95;;
64885;SDS011;51514;52.206;5.114;2023-12-29T06:50:47;24.23;;;4.82;;
64885;SDS011;51514;52.206;5.114;2023-12-29T06:53:12;19.23;;;4.22;;
64885;SDS011;51514;52.206;5.114;2023-12-29T06:55:38;20.73;;;5.65;;
64885;SDS011;51514;52.206;5.114;2023-12-29T06:58:07;18.13;;;3.92;;
64885;SDS011;51514;52.206;5.114;2023-12-29T07:00:32;20.02;;;4.22;;
64885;SDS011;51514;52.206;5.114;2023-12-29T07:02:58;16.15;;;3.35;;
64885;SDS011;51514;52.206;5.114;2023-12-29T07:05:25;12.98;;;4.40;;
64885;SDS011;51514;52.206;5.114;2023-12-29T07:07:50;17.23;;;5.15;;
64885;SDS011;51514;52.206;5.114;2023-12-29T07:10:16;25.60;;;5.20;;
64885;SDS011;51514;52.206;5.114;2023-12-29T07:12:41;24.17;;;5.10;;
64885;SDS011;51514;52.206;5.114;2023-12-29T07:15:06;14.25;;;4.03;;
64885;SDS011;51514;52.206;5.114;2023-12-29T07:17:32;15.13;;;3.67;;
64885;SDS011;51514;52.206;5.114;2023-12-29T07:19:57;14.45;;;4.25;;
64885;SDS011;51514;52.206;5.114;2023-12-29T07:22:23;18.52;;;4.30;;
64885;SDS011;51514;52.206;5.114;2023-12-29T07:24:48;10.77;;;3.80;;
64885;SDS011;51514;52.206;5.114;2023-12-29T07:27:14;12.02;;;4.35;;
64885;SDS011;51514;52.206;5.114;2023-12-29T07:29:39;13.05;;;3.63;;
64885;SDS011;51514;52.206;5.114;2023-12-29T07:32:05;14.07;;;3.20;;
64885;SDS011;51514;52.206;5.114;2023-12-29T07:34:30;11.80;;;3.85;;
64885;SDS011;51514;52.206;5.114;2023-12-29T07:36:56;12.10;;;3.50;;
64885;SDS011;51514;52.206;5.114;2023-12-29T07:39:23;10.65;;;4.30;;
64885;SDS011;51514;52.206;5.114;2023-12-29T07:41:49;10.70;;;3.47;;
64885;SDS011;51514;52.206;5.114;2023-12-29T07:44:16;10.07;;;3.55;;
64885;SDS011;51514;52.206;5.114;2023-12-29T07:46:42;15.43;;;3.38;;
64885;SDS011;51514;52.206;5.114;2023-12-29T07:49:07;12.63;;;3.40;;
64885;SDS011;51514;52.206;5.114;2023-12-29T07:51:33;9.88;;;3.40;;
64885;SDS011;51514;52.206;5.114;2023-12-29T07:53:59;10.75;;;3.25;;
64885;SDS011;51514;52.206;5.114;2023-12-29T07:56:24;14.60;;;4.70;;
64885;SDS011;51514;52.206;5.114;2023-12-29T07:58:50;17.33;;;3.78;;
64885;SDS011;51514;52.206;5.114;2023-12-29T08:01:15;12.60;;;3.60;;
64885;SDS011;51514;52.206;5.114;2023-12-29T08:03:40;10.77;;;4.35;;
64885;SDS011;51514;52.206;5.114;2023-12-29T08:06:06;10.73;;;4.07;;
64885;SDS011;51514;52.206;5.114;2023-12-29T08:08:31;12.65;;;4.55;;
64885;SDS011;51514;52.206;5.114;2023-12-29T08:10:56;10.93;;;4.45;;
64885;SDS011;51514;52.206;5.114;2023-12-29T08:13:22;12.50;;;4.47;;
64885;SDS011;51514;52.206;5.114;2023-12-29T08:15:47;14.02;;;4.82;;
64885;SDS011;51514;52.206;5.114;2023-12-29T08:18:12;13.55;;;3.80;;
64885;SDS011;51514;52.206;5.114;2023-12-29T08:20:38;12.25;;;4.45;;
64885;SDS011;51514;52.206;5.114;2023-12-29T08:23:03;14.20;;;4.43;;
64885;SDS011;51514;52.206;5.114;2023-12-29T08:25:29;17.77;;;5.47;;
64885;SDS011;51514;52.206;5.114;2023-12-29T08:27:55;13.70;;;4.95;;
64885;SDS011;51514;52.206;5.114;2023-12-29T08:30:21;8.98;;;4.00;;
64885;SDS011;51514;52.206;5.114;2023-12-29T08:32:46;9.60;;;3.90;;
64885;SDS011;51514;52.206;5.114;2023-12-29T08:35:12;10.38;;;3.90;;
64885;SDS011;51514;52.206;5.114;2023-12-29T08:37:37;10.55;;;3.42;;
64885;SDS011;51514;52.206;5.114;2023-12-29T08:40:03;9.20;;;2.95;;
64885;SDS011;51514;52.206;5.114;2023-12-29T08:42:28;19.80;;;3.97;;
64885;SDS011;51514;52.206;5.114;2023-12-29T08:44:54;10.40;;;3.20;;
64885;SDS011;51514;52.206;5.114;2023-12-29T08:47:19;13.13;;;4.32;;
64885;SDS011;51514;52.206;5.114;2023-12-29T08:49:44;10.23;;;3.70;;
64885;SDS011;51514;52.206;5.114;2023-12-29T08:52:10;8.40;;;3.35;;
64885;SDS011;51514;52.206;5.114;2023-12-29T08:54:36;7.13;;;2.83;;
64885;SDS011;51514;52.206;5.114;2023-12-29T08:57:04;11.75;;;3.58;;
64885;SDS011;51514;52.206;5.114;2023-12-29T08:59:29;10.23;;;3.17;;
64885;SDS011;51514;52.206;5.114;2023-12-29T09:01:55;9.05;;;3.75;;
64885;SDS011;51514;52.206;5.114;2023-12-29T09:04:20;12.10;;;4.03;;
64885;SDS011;51514;52.206;5.114;2023-12-29T09:06:45;9.60;;;3.72;;
64885;SDS011;51514;52.206;5.114;2023-12-29T09:09:11;8.43;;;3.00;;
64885;SDS011;51514;52.206;5.114;2023-12-29T09:11:38;14.25;;;4.22;;
64885;SDS011;51514;52.206;5.114;2023-12-29T09:14:04;7.63;;;3.70;;
64885;SDS011;51514;52.206;5.114;2023-12-29T09:16:29;8.15;;;3.25;;
64885;SDS011;51514;52.206;5.114;2023-12-29T09:18:55;6.97;;;2.80;;
64885;SDS011;51514;52.206;5.114;2023-12-29T09:21:20;11.15;;;3.03;;
64885;SDS011;51514;52.206;5.114;2023-12-29T09:23:45;10.55;;;3.53;;
64885;SDS011;51514;52.206;5.114;2023-12-29T09:26:12;7.53;;;2.95;;
64885;SDS011;51514;52.206;5.114;2023-12-29T09:28:37;9.35;;;3.35;;
64885;SDS011;51514;52.206;5.114;2023-12-29T09:31:03;9.32;;;3.55;;
64885;SDS011;51514;52.206;5.114;2023-12-29T09:33:28;7.78;;;3.03;;
64885;SDS011;51514;52.206;5.114;2023-12-29T09:35:53;15.57;;;3.45;;
64885;SDS011;51514;52.206;5.114;2023-12-29T09:38:19;8.38;;;3.05;;
64885;SDS011;51514;52.206;5.114;2023-12-29T09:40:45;10.32;;;2.92;;
64885;SDS011;51514;52.206;5.114;2023-12-29T09:43:11;11.95;;;3.40;;
64885;SDS011;51514;52.206;5.114;2023-12-29T09:45:38;9.23;;;3.53;;
64885;SDS011;51514;52.206;5.114;2023-12-29T09:48:07;10.03;;;3.93;;
64885;SDS011;51514;52.206;5.114;2023-12-29T09:50:32;12.77;;;3.40;;
64885;SDS011;51514;52.206;5.114;2023-12-29T09:53:00;11.10;;;4.18;;
64885;SDS011;51514;52.206;5.114;2023-12-29T09:55:27;10.90;;;3.30;;
64885;SDS011;51514;52.206;5.114;2023-12-29T09:57:53;9.90;;;3.95;;
64885;SDS011;51514;52.206;5.114;2023-12-29T10:00:20;8.60;;;2.80;;
64885;SDS011;51514;52.206;5.114;2023-12-29T10:02:46;12.63;;;4.40;;
64885;SDS011;51514;52.206;5.114;2023-12-29T10:05:14;10.70;;;3.15;;
64885;SDS011;51514;52.206;5.114;2023-12-29T10:07:40;10.80;;;2.75;;
64885;SDS011;51514;52.206;5.114;2023-12-29T10:10:08;8.48;;;3.40;;
64885;SDS011;51514;52.206;5.114;2023-12-29T10:12:39;8.57;;;3.00;;
64885;SDS011;51514;52.206;5.114;2023-12-29T10:15:08;9.63;;;3.33;;
64885;SDS011;51514;52.206;5.114;2023-12-29T10:23:13;12.45;;;3.35;;
64885;SDS011;51514;52.206;5.114;2023-12-29T10:25:53;11.20;;;3.33;;
64885;SDS011;51514;52.206;5.114;2023-12-29T10:28:19;8.82;;;3.53;;
64885;SDS011;51514;52.206;5.114;2023-12-29T10:30:46;9.88;;;3.25;;
64885;SDS011;51514;52.206;5.114;2023-12-29T10:33:13;12.63;;;3.10;;
64885;SDS011;51514;52.206;5.114;2023-12-29T10:35:56;11.45;;;3.67;;
64885;SDS011;51514;52.206;5.114;2023-12-29T10:38:22;7.28;;;2.80;;
64885;SDS011;51514;52.206;5.114;2023-12-29T10:40:48;14.20;;;3.97;;
64885;SDS011;51514;52.206;5.114;2023-12-29T10:43:13;11.85;;;3.25;;
64885;SDS011;51514;52.206;5.114;2023-12-29T10:45:38;15.15;;;3.95;;
64885;SDS011;51514;52.206;5.114;2023-12-29T10:48:04;13.32;;;3.60;;
64885;SDS011;51514;52.206;5.114;2023-12-29T10:50:30;17.52;;;4.18;;
64885;SDS011;51514;52.206;5.114;2023-12-29T10:53:12;10.50;;;4.30;;
64885;SDS011;51514;52.206;5.114;2023-12-29T10:55:38;14.40;;;3.80;;
64885;SDS011;51514;52.206;5.114;2023-12-29T10:58:03;15.60;;;4.22;;
64885;SDS011;51514;52.206;5.114;2023-12-29T11:00:30;27.05;;;5.05;;
64885;SDS011;51514;52.206;5.114;2023-12-29T11:02:56;20.55;;;4.38;;
64885;SDS011;51514;52.206;5.114;2023-12-29T11:05:24;16.65;;;4.57;;
64885;SDS011;51514;52.206;5.114;2023-12-29T11:07:50;24.58;;;4.78;;
64885;SDS011;51514;52.206;5.114;2023-12-29T11:10:19;18.13;;;5.40;;
64885;SDS011;51514;52.206;5.114;2023-12-29T11:12:45;19.95;;;4.00;;
64885;SDS011;51514;52.206;5.114;2023-12-29T11:15:13;23.17;;;4.80;;
64885;SDS011;51514;52.206;5.114;2023-12-29T11:17:39;19.33;;;3.90;;
64885;SDS011;51514;52.206;5.114;2023-12-29T11:20:14;24.70;;;4.65;;
64885;SDS011;51514;52.206;5.114;2023-12-29T11:22:41;27.25;;;5.03;;
64885;SDS011;51514;52.206;5.114;2023-12-29T11:25:08;23.83;;;3.88;;
64885;SDS011;51514;52.206;5.114;2023-12-29T11:27:33;20.17;;;4.68;;
64885;SDS011;51514;52.206;5.114;2023-12-29T11:30:01;17.42;;;4.70;;
64885;SDS011;51514;52.206;5.114;2023-12-29T11:35:31;21.58;;;4.97;;
64885;SDS011;51514;52.206;5.114;2023-12-29T11:43:32;20.95;;;6.22;;
64885;SDS011;51514;52.206;5.114;2023-12-29T11:45:58;20.48;;;5.47;;
64885;SDS011;51514;52.206;5.114;2023-12-29T11:53:55;22.25;;;5.00;;
64885;SDS011;51514;52.206;5.114;2023-12-29T11:56:21;19.67;;;4.30;;
64885;SDS011;51514;52.206;5.114;2023-12-29T11:58:47;16.73;;;4.50;;
64885;SDS011;51514;52.206;5.114;2023-12-29T12:01:13;16.45;;;4.68;;
64885;SDS011;51514;52.206;5.114;2023-12-29T12:03:38;15.52;;;3.80;;
64885;SDS011;51514;52.206;5.114;2023-12-29T12:06:04;20.75;;;5.05;;
64885;SDS011;51514;52.206;5.114;2023-12-29T12:08:30;14.25;;;3.53;;
64885;SDS011;51514;52.206;5.114;2023-12-29T12:10:57;19.42;;;4.00;;
64885;SDS011;51514;52.206;5.114;2023-12-29T12:13:54;17.38;;;3.80;;
64885;SDS011;51514;52.206;5.114;2023-12-29T12:19:09;20.90;;;4.80;;
64885;SDS011;51514;52.206;5.114;2023-12-29T12:21:35;19.38;;;3.58;;
64885;SDS011;51514;52.206;5.114;2023-12-29T12:24:03;21.30;;;4.05;;
64885;SDS011;51514;52.206;5.114;2023-12-29T12:26:29;14.30;;;3.83;;
64885;SDS011;51514;52.206;5.114;2023-12-29T12:28:56;23.90;;;5.20;;
64885;SDS011;51514;52.206;5.114;2023-12-29T12:31:22;15.50;;;3.90;;
64885;SDS011;51514;52.206;5.114;2023-12-29T12:33:54;10.02;;;3.30;;
64885;SDS011;51514;52.206;5.114;2023-12-29T12:36:23;10.35;;;3.08;;
64885;SDS011;51514;52.206;5.114;2023-12-29T12:38:50;19.10;;;5.40;;
64885;SDS011;51514;52.206;5.114;2023-12-29T12:41:22;19.08;;;4.55;;
64885;SDS011;51514;52.206;5.114;2023-12-29T12:44:10;13.35;;;3.50;;
64885;SDS011;51514;52.206;5.114;2023-12-29T12:49:12;18.23;;;3.75;;
64885;SDS011;51514;52.206;5.114;2023-12-29T12:51:39;14.40;;;3.75;;
64885;SDS011;51514;52.206;5.114;2023-12-29T12:54:04;13.75;;;4.25;;
64885;SDS011;51514;52.206;5.114;2023-12-29T12:56:30;13.43;;;3.63;;
64885;SDS011;51514;52.206;5.114;2023-12-29T12:58:59;13.88;;;3.80;;
64885;SDS011;51514;52.206;5.114;2023-12-29T13:01:27;16.70;;;3.75;;
64885;SDS011;51514;52.206;5.114;2023-12-29T13:03:53;15.43;;;4.10;;
64885;SDS011;51514;52.206;5.114;2023-12-29T13:06:21;12.82;;;3.92;;
64885;SDS011;51514;52.206;5.114;2023-12-29T13:08:50;14.65;;;3.92;;
64885;SDS011;51514;52.206;5.114;2023-12-29T13:13:50;12.98;;;3.50;;
64885;SDS011;51514;52.206;5.114;2023-12-29T13:16:31;13.20;;;3.38;;
64885;SDS011;51514;52.206;5.114;2023-12-29T13:21:48;14.25;;;3.05;;
64885;SDS011;51514;52.206;5.114;2023-12-29T13:24:22;17.10;;;3.85;;
64885;SDS011;51514;52.206;5.114;2023-12-29T13:26:50;9.63;;;3.15;;
64885;SDS011;51514;52.206;5.114;2023-12-29T13:29:21;16.13;;;3.78;;
64885;SDS011;51514;52.206;5.114;2023-12-29T13:31:49;13.30;;;2.92;;
64885;SDS011;51514;52.206;5.114;2023-12-29T13:35:03;16.98;;;3.42;;
64885;SDS011;51514;52.206;5.114;2023-12-29T13:40:07;18.13;;;3.53;;
64885;SDS011;51514;52.206;5.114;2023-12-29T13:42:37;14.57;;;4.70;;
64885;SDS011;51514;52.206;5.114;2023-12-29T13:45:06;10.25;;;2.78;;
64885;SDS011;51514;52.206;5.114;2023-12-29T13:47:34;17.17;;;3.72;;
64885;SDS011;51514;52.206;5.114;2023-12-29T13:50:01;16.13;;;4.10;;
64885;SDS011;51514;52.206;5.114;2023-12-29T13:52:27;14.80;;;3.53;;
64885;SDS011;51514;52.206;5.114;2023-12-29T13:54:53;18.80;;;3.53;;
64885;SDS011;51514;52.206;5.114;2023-12-29T13:57:19;13.18;;;3.42;;
64885;SDS011;51514;52.206;5.114;2023-12-29T13:59:54;13.70;;;3.08;;
64885;SDS011;51514;52.206;5.114;2023-12-29T14:05:05;14.52;;;3.55;;
64885;SDS011;51514;52.206;5.114;2023-12-29T14:07:36;17.55;;;3.78;;
64885;SDS011;51514;52.206;5.114;2023-12-29T14:10:01;12.48;;;3.63;;
64885;SDS011;51514;52.206;5.114;2023-12-29T14:12:27;27.33;;;3.90;;
64885;SDS011;51514;52.206;5.114;2023-12-29T14:14:52;13.48;;;4.10;;
64885;SDS011;51514;52.206;5.114;2023-12-29T14:17:21;22.38;;;4.57;;
64885;SDS011;51514;52.206;5.114;2023-12-29T14:19:46;21.95;;;3.75;;
64885;SDS011;51514;52.206;5.114;2023-12-29T14:22:20;13.95;;;3.28;;
64885;SDS011;51514;52.206;5.114;2023-12-29T14:25:00;19.88;;;3.33;;
64885;SDS011;51514;52.206;5.114;2023-12-29T14:27:28;14.35;;;3.47;;
64885;SDS011;51514;52.206;5.114;2023-12-29T14:29:54;15.43;;;3.78;;
64885;SDS011;51514;52.206;5.114;2023-12-29T14:32:19;20.48;;;4.75;;
64885;SDS011;51514;52.206;5.114;2023-12-29T14:34:47;23.40;;;4.03;;
64885;SDS011;51514;52.206;5.114;2023-12-29T14:37:17;20.38;;;3.45;;
64885;SDS011;51514;52.206;5.114;2023-12-29T14:39:50;20.58;;;3.45;;
64885;SDS011;51514;52.206;5.114;2023-12-29T14:42:16;17.83;;;3.85;;
64885;SDS011;51514;52.206;5.114;2023-12-29T14:44:41;11.13;;;3.10;;
64885;SDS011;51514;52.206;5.114;2023-12-29T14:47:07;17.52;;;3.75;;
64885;SDS011;51514;52.206;5.114;2023-12-29T14:49:32;14.25;;;3.15;;
64885;SDS011;51514;52.206;5.114;2023-12-29T14:51:58;13.65;;;3.53;;
64885;SDS011;51514;52.206;5.114;2023-12-29T14:54:23;13.95;;;3.80;;
64885;SDS011;51514;52.206;5.114;2023-12-29T14:56:48;12.10;;;4.22;;
64885;SDS011;51514;52.206;5.114;2023-12-29T14:59:14;17.63;;;4.22;;
64885;SDS011;51514;52.206;5.114;2023-12-29T15:01:39;22.40;;;9.48;;
64885;SDS011;51514;52.206;5.114;2023-12-29T15:04:04;21.17;;;5.32;;
64885;SDS011;51514;52.206;5.114;2023-12-29T15:06:30;16.00;;;4.45;;
64885;SDS011;51514;52.206;5.114;2023-12-29T15:08:55;12.30;;;3.92;;
64885;SDS011;51514;52.206;5.114;2023-12-29T15:11:20;11.60;;;3.10;;
64885;SDS011;51514;52.206;5.114;2023-12-29T15:13:46;10.77;;;3.40;;
64885;SDS011;51514;52.206;5.114;2023-12-29T15:16:12;8.27;;;2.70;;